createdAt,value
2018-07-16T00:00:42.674Z,99.20
2018-07-16T00:01:42.658Z,99.01
2018-07-16T00:02:42.641Z,99.20
2018-07-16T00:03:42.625Z,99.01
2018-07-16T00:04:42.608Z,98.82
2018-07-16T00:05:42.595Z,99.10
2018-07-16T00:06:42.573Z,99.01
2018-07-16T00:07:42.558Z,99.58
2018-07-16T00:08:42.542Z,99.49
2018-07-16T00:09:42.521Z,99.15
2018-07-16T00:10:42.504Z,99.54
2018-07-16T00:11:42.487Z,98.38
2018-07-16T00:12:42.471Z,99.05
2018-07-16T00:13:42.456Z,99.15
2018-07-16T00:14:42.522Z,98.53
2018-07-16T00:15:42.420Z,98.72
2018-07-16T00:16:42.403Z,98.53
2018-07-16T00:17:42.386Z,99.10
2018-07-16T00:18:44.620Z,99.30
2018-07-16T00:19:42.352Z,99.44
2018-07-16T00:20:42.335Z,99.05
2018-07-16T00:21:42.320Z,99.44
2018-07-16T00:22:42.300Z,99.54
2018-07-16T00:23:42.283Z,99.15
2018-07-16T00:24:42.266Z,99.34
2018-07-16T00:25:42.248Z,99.44
2018-07-16T00:26:42.232Z,98.96
2018-07-16T00:27:42.216Z,99.15
2018-07-16T00:28:42.201Z,99.05
2018-07-16T00:29:42.179Z,99.15
2018-07-16T00:30:42.162Z,99.05
2018-07-16T00:31:42.145Z,99.44
2018-07-16T00:32:42.130Z,99.34
2018-07-16T00:33:42.110Z,99.34
2018-07-16T00:34:42.095Z,99.34
2018-07-16T00:35:42.077Z,99.99
2018-07-16T00:36:42.060Z,99.99
2018-07-16T00:37:42.043Z,99.87
2018-07-16T00:38:42.029Z,99.99
2018-07-16T00:39:42.010Z,99.99
2018-07-16T00:40:42.743Z,99.99
2018-07-16T00:41:41.975Z,99.99
2018-07-16T00:42:41.957Z,99.25
2018-07-16T00:43:41.940Z,99.44
2018-07-16T00:44:41.929Z,99.44
2018-07-16T00:45:41.906Z,99.63
2018-07-16T00:46:41.889Z,99.54
2018-07-16T00:47:41.874Z,99.92
2018-07-16T00:48:41.855Z,99.82
2018-07-16T00:49:41.838Z,99.34
2018-07-16T00:50:41.821Z,99.73
2018-07-16T00:51:41.803Z,99.92
2018-07-16T00:52:41.787Z,99.73
2018-07-16T00:53:41.769Z,99.54
2018-07-16T00:54:41.751Z,99.87
2018-07-16T00:55:41.757Z,99.99
2018-07-16T00:56:41.719Z,99.99
2018-07-16T00:57:41.700Z,99.99
2018-07-16T00:58:41.683Z,99.99
2018-07-16T00:59:41.666Z,99.99
2018-07-16T01:00:41.649Z,99.99
2018-07-16T01:01:41.631Z,99.99
2018-07-16T01:02:42.365Z,99.99
2018-07-16T01:03:41.598Z,99.99
2018-07-16T01:04:41.581Z,99.99
2018-07-16T01:05:41.563Z,99.99
2018-07-16T01:06:41.546Z,99.99
2018-07-16T01:07:41.529Z,99.99
2018-07-16T01:08:41.513Z,99.99
2018-07-16T01:09:41.494Z,99.99
2018-07-16T01:10:41.478Z,99.99
2018-07-16T01:11:41.459Z,99.99
2018-07-16T01:12:41.442Z,99.99
2018-07-16T01:13:41.422Z,99.99
2018-07-16T01:14:41.407Z,99.99
2018-07-16T01:15:41.390Z,99.99
2018-07-16T01:16:41.371Z,99.99
2018-07-16T01:17:41.353Z,99.99
2018-07-16T01:18:41.336Z,99.99
2018-07-16T01:19:41.319Z,99.99
2018-07-16T01:20:41.303Z,99.99
2018-07-16T01:21:41.285Z,99.99
2018-07-16T01:22:41.267Z,99.99
2018-07-16T01:23:41.251Z,99.99
2018-07-16T01:24:41.233Z,99.99
2018-07-16T01:25:41.214Z,99.63
2018-07-16T01:26:41.200Z,99.91
2018-07-16T01:27:41.181Z,99.99
2018-07-16T01:28:41.164Z,99.99
2018-07-16T01:29:41.145Z,99.99
2018-07-16T01:30:41.129Z,99.91
2018-07-16T01:31:41.110Z,99.99
2018-07-16T01:32:41.096Z,99.99
2018-07-16T01:33:41.076Z,99.99
2018-07-16T01:34:41.059Z,99.99
2018-07-16T01:35:41.042Z,99.99
2018-07-16T01:36:41.025Z,99.99
2018-07-16T01:37:41.010Z,99.99
2018-07-16T01:38:40.989Z,99.99
2018-07-16T01:39:40.972Z,99.99
2018-07-16T01:40:40.955Z,99.99
2018-07-16T01:41:40.937Z,99.99
2018-07-16T01:42:40.918Z,99.99
2018-07-16T01:43:40.903Z,99.99
2018-07-16T01:44:40.885Z,99.91
2018-07-16T01:45:40.868Z,99.99
2018-07-16T01:46:40.849Z,99.99
2018-07-16T01:47:40.831Z,99.82
2018-07-16T01:48:40.815Z,99.91
2018-07-16T01:49:41.547Z,99.99
2018-07-16T01:50:40.780Z,99.99
2018-07-16T01:51:40.761Z,99.91
2018-07-16T01:52:40.746Z,99.63
2018-07-16T01:53:40.725Z,99.99
2018-07-16T01:54:40.708Z,99.99
2018-07-16T01:55:40.691Z,99.99
2018-07-16T01:56:40.673Z,99.99
2018-07-16T01:57:40.654Z,99.99
2018-07-16T01:58:40.641Z,99.99
2018-07-16T01:59:40.621Z,99.99
2018-07-16T02:00:40.607Z,99.99
2018-07-16T02:01:40.585Z,99.99
2018-07-16T02:02:40.568Z,99.91
2018-07-16T02:03:40.550Z,99.99
2018-07-16T02:04:40.534Z,99.29
2018-07-16T02:05:40.515Z,99.77
2018-07-16T02:06:40.498Z,99.68
2018-07-16T02:07:40.479Z,99.39
2018-07-16T02:08:40.462Z,99.39
2018-07-16T02:09:40.443Z,99.49
2018-07-16T02:10:40.427Z,99.49
2018-07-16T02:11:40.408Z,99.39
2018-07-16T02:12:40.390Z,99.58
2018-07-16T02:13:40.372Z,99.10
2018-07-16T02:14:40.355Z,99.49
2018-07-16T02:15:40.338Z,99.77
2018-07-16T02:16:40.319Z,99.77
2018-07-16T02:17:40.303Z,99.73
2018-07-16T02:18:40.283Z,99.15
2018-07-16T02:19:40.265Z,99.91
2018-07-16T02:20:40.248Z,99.91
2018-07-16T02:21:40.230Z,99.99
2018-07-16T02:22:40.213Z,99.99
2018-07-16T02:23:40.197Z,99.99
2018-07-16T02:24:40.179Z,99.91
2018-07-16T02:25:40.160Z,99.99
2018-07-16T02:26:40.144Z,99.73
2018-07-16T02:27:40.126Z,99.99
2018-07-16T02:28:40.108Z,99.91
2018-07-16T02:29:40.090Z,99.99
2018-07-16T02:30:40.073Z,99.99
2018-07-16T02:31:40.054Z,99.63
2018-07-16T02:32:40.038Z,99.99
2018-07-16T02:33:40.020Z,99.63
2018-07-16T02:34:40.001Z,99.99
2018-07-16T02:35:41.484Z,99.99
2018-07-16T02:36:39.966Z,99.99
2018-07-16T02:37:39.954Z,99.99
2018-07-16T02:38:39.968Z,99.99
2018-07-16T02:39:39.914Z,99.99
2018-07-16T02:40:39.895Z,99.99
2018-07-16T02:41:39.881Z,99.99
2018-07-16T02:42:39.858Z,99.96
2018-07-16T02:43:39.841Z,99.99
2018-07-16T02:44:39.825Z,99.99
2018-07-16T02:45:39.808Z,99.99
2018-07-16T02:46:39.789Z,99.99
2018-07-16T02:47:39.771Z,99.99
2018-07-16T02:48:39.753Z,99.99
2018-07-16T02:49:39.734Z,99.99
2018-07-16T02:50:39.717Z,99.91
2018-07-16T02:51:39.700Z,99.99
2018-07-16T02:52:39.682Z,99.99
2018-07-16T02:53:39.664Z,99.99
2018-07-16T02:54:39.646Z,99.99
2018-07-16T02:55:39.630Z,99.63
2018-07-16T02:56:39.611Z,99.82
2018-07-16T02:57:39.594Z,99.99
2018-07-16T02:58:39.575Z,99.99
2018-07-16T02:59:39.559Z,99.99
2018-07-16T03:00:39.540Z,99.63
2018-07-16T03:01:39.523Z,99.82
2018-07-16T03:02:39.503Z,99.63
2018-07-16T03:03:39.486Z,99.91
2018-07-16T03:04:39.470Z,99.91
2018-07-16T03:05:39.454Z,99.63
2018-07-16T03:06:39.434Z,99.99
2018-07-16T03:07:39.419Z,99.63
2018-07-16T03:08:39.399Z,99.53
2018-07-16T03:09:39.378Z,99.82
2018-07-16T03:10:39.360Z,99.53
2018-07-16T03:11:39.348Z,99.99
2018-07-16T03:12:39.328Z,99.99
2018-07-16T03:13:39.309Z,99.99
2018-07-16T03:14:39.290Z,99.91
2018-07-16T03:15:39.277Z,99.99
2018-07-16T03:16:39.254Z,99.99
2018-07-16T03:17:39.236Z,99.91
2018-07-16T03:18:39.221Z,99.99
2018-07-16T03:19:39.201Z,99.99
2018-07-16T03:20:39.182Z,99.73
2018-07-16T03:21:39.164Z,99.82
2018-07-16T03:22:39.146Z,99.63
2018-07-16T03:23:39.131Z,99.63
2018-07-16T03:24:39.146Z,99.53
2018-07-16T03:25:39.092Z,99.24
2018-07-16T03:26:39.077Z,98.77
2018-07-16T03:27:39.059Z,98.86
2018-07-16T03:28:39.043Z,99.53
2018-07-16T03:29:39.024Z,99.24
2018-07-16T03:30:39.003Z,98.86
2018-07-16T03:31:38.985Z,99.34
2018-07-16T03:32:38.971Z,99.44
2018-07-16T03:33:38.949Z,99.44
2018-07-16T03:34:38.932Z,99.24
2018-07-16T03:35:38.914Z,99.44
2018-07-16T03:36:38.896Z,99.34
2018-07-16T03:37:38.878Z,99.24
2018-07-16T03:38:38.861Z,99.24
2018-07-16T03:39:38.846Z,99.63
2018-07-16T03:40:38.826Z,99.44
2018-07-16T03:41:38.810Z,99.15
2018-07-16T03:42:38.789Z,99.24
2018-07-16T03:43:38.772Z,99.15
2018-07-16T03:44:38.755Z,99.44
2018-07-16T03:45:38.736Z,99.05
2018-07-16T03:46:38.718Z,99.53
2018-07-16T03:47:38.702Z,99.29
2018-07-16T03:48:38.686Z,99.34
2018-07-16T03:49:38.666Z,99.34
2018-07-16T03:50:38.647Z,99.39
2018-07-16T03:51:38.630Z,99.34
2018-07-16T03:52:38.627Z,99.24
2018-07-16T03:53:38.593Z,99.05
2018-07-16T03:54:38.576Z,99.39
2018-07-16T03:55:38.560Z,99.19
2018-07-16T03:56:38.542Z,99.29
2018-07-16T03:57:38.523Z,99.19
2018-07-16T03:58:38.505Z,99.48
2018-07-16T03:59:38.488Z,99.29
2018-07-16T04:00:38.469Z,99.01
2018-07-16T04:01:38.512Z,98.81
2018-07-16T04:02:38.435Z,98.72
2018-07-16T04:03:38.417Z,98.76
2018-07-16T04:04:38.401Z,99.19
2018-07-16T04:05:39.881Z,98.52
2018-07-16T04:06:38.364Z,98.67
2018-07-16T04:07:38.345Z,98.57
2018-07-16T04:08:38.327Z,98.76
2018-07-16T04:09:38.308Z,98.76
2018-07-16T04:10:38.290Z,98.86
2018-07-16T04:11:38.272Z,98.00
2018-07-16T04:12:38.255Z,98.00
2018-07-16T04:13:38.235Z,97.90
2018-07-16T04:14:38.217Z,98.14
2018-07-16T04:15:38.203Z,98.28
2018-07-16T04:16:38.181Z,97.76
2018-07-16T04:17:38.164Z,97.95
2018-07-16T04:18:38.145Z,97.38
2018-07-16T04:19:38.126Z,97.28
2018-07-16T04:20:38.111Z,97.38
2018-07-16T04:21:38.090Z,97.66
2018-07-16T04:22:38.074Z,97.95
2018-07-16T04:23:38.055Z,97.56
2018-07-16T04:24:38.037Z,97.95
2018-07-16T04:25:38.019Z,97.38
2018-07-16T04:26:38.002Z,97.47
2018-07-16T04:27:39.485Z,97.18
2018-07-16T04:28:37.966Z,97.09
2018-07-16T04:29:37.947Z,97.95
2018-07-16T04:30:37.929Z,98.00
2018-07-16T04:31:37.910Z,98.00
2018-07-16T04:32:37.893Z,98.00
2018-07-16T04:33:38.624Z,97.85
2018-07-16T04:34:37.856Z,97.81
2018-07-16T04:35:37.840Z,97.90
2018-07-16T04:36:37.821Z,97.71
2018-07-16T04:37:37.801Z,98.28
2018-07-16T04:38:37.785Z,97.61
2018-07-16T04:39:37.766Z,97.90
2018-07-16T04:40:37.748Z,97.56
2018-07-16T04:41:37.732Z,97.81
2018-07-16T04:42:37.711Z,97.61
2018-07-16T04:43:37.695Z,98.19
2018-07-16T04:44:37.676Z,98.00
2018-07-16T04:45:37.657Z,98.10
2018-07-16T04:46:37.641Z,98.28
2018-07-16T04:47:37.622Z,98.28
2018-07-16T04:48:37.605Z,97.81
2018-07-16T04:49:37.588Z,98.00
2018-07-16T04:50:37.568Z,98.10
2018-07-16T04:51:37.551Z,98.00
2018-07-16T04:52:37.533Z,97.61
2018-07-16T04:53:37.514Z,98.28
2018-07-16T04:54:37.495Z,97.56
2018-07-16T04:55:37.479Z,97.90
2018-07-16T04:56:37.460Z,98.00
2018-07-16T04:57:37.446Z,97.90
2018-07-16T04:58:37.425Z,97.90
2018-07-16T04:59:37.408Z,97.61
2018-07-16T05:00:37.388Z,97.61
2018-07-16T05:01:37.370Z,98.00
2018-07-16T05:02:37.352Z,97.61
2018-07-16T05:03:37.344Z,97.90
2018-07-16T05:04:38.770Z,97.61
2018-07-16T05:05:37.300Z,98.00
2018-07-16T05:06:37.282Z,97.61
2018-07-16T05:07:37.265Z,97.90
2018-07-16T05:08:37.247Z,97.90
2018-07-16T05:09:37.228Z,97.90
2018-07-16T05:10:38.712Z,98.10
2018-07-16T05:11:37.192Z,97.71
2018-07-16T05:12:37.175Z,97.42
2018-07-16T05:13:37.156Z,98.10
2018-07-16T05:14:37.145Z,98.19
2018-07-16T05:15:37.121Z,98.28
2018-07-16T05:16:37.856Z,97.90
2018-07-16T05:17:37.086Z,98.77
2018-07-16T05:18:37.067Z,98.72
2018-07-16T05:19:37.050Z,98.72
2018-07-16T05:20:37.035Z,98.82
2018-07-16T05:21:37.015Z,98.82
2018-07-16T05:22:36.997Z,98.43
2018-07-16T05:23:36.979Z,98.53
2018-07-16T05:24:36.961Z,98.33
2018-07-16T05:25:36.945Z,98.82
2018-07-16T05:26:36.927Z,98.72
2018-07-16T05:27:36.908Z,98.62
2018-07-16T05:28:36.892Z,98.53
2018-07-16T05:29:36.873Z,98.43
2018-07-16T05:30:36.856Z,99.10
2018-07-16T05:31:36.845Z,99.01
2018-07-16T05:32:37.015Z,98.91
2018-07-16T05:33:36.803Z,98.82
2018-07-16T05:34:36.788Z,98.48
2018-07-16T05:35:36.767Z,99.10
2018-07-16T05:36:36.750Z,99.39
2018-07-16T05:37:38.234Z,99.34
2018-07-16T05:38:36.715Z,99.34
2018-07-16T05:39:36.698Z,99.34
2018-07-16T05:40:36.680Z,99.05
2018-07-16T05:41:36.662Z,99.25
2018-07-16T05:42:36.645Z,99.25
2018-07-16T05:43:36.630Z,99.44
2018-07-16T05:44:36.610Z,99.25
2018-07-16T05:45:36.592Z,99.25
2018-07-16T05:46:36.575Z,99.54
2018-07-16T05:47:36.558Z,99.63
2018-07-16T05:48:36.541Z,99.44
2018-07-16T05:49:36.527Z,99.05
2018-07-16T05:50:36.505Z,99.25
2018-07-16T05:51:36.487Z,99.40
2018-07-16T05:52:36.469Z,99.40
2018-07-16T05:53:36.455Z,99.30
2018-07-16T05:54:36.434Z,99.10
2018-07-16T05:55:36.417Z,99.30
2018-07-16T05:56:36.399Z,99.78
2018-07-16T05:57:36.381Z,99.30
2018-07-16T05:58:36.365Z,99.01
2018-07-16T05:59:38.599Z,99.01
2018-07-16T06:00:36.331Z,99.68
2018-07-16T06:01:36.313Z,99.58
2018-07-16T06:02:36.296Z,98.63
2018-07-16T06:03:36.278Z,99.06
2018-07-16T06:04:36.262Z,99.54
2018-07-16T06:05:36.242Z,99.35
2018-07-16T06:06:36.227Z,99.73
2018-07-16T06:07:36.214Z,99.35
2018-07-16T06:08:36.196Z,99.44
2018-07-16T06:09:36.176Z,99.15
2018-07-16T06:10:36.184Z,99.35
2018-07-16T06:11:36.140Z,99.73
2018-07-16T06:12:36.123Z,99.15
2018-07-16T06:13:36.106Z,98.96
2018-07-16T06:14:36.193Z,98.58
2018-07-16T06:15:36.070Z,99.25
2018-07-16T06:16:36.055Z,99.54
2018-07-16T06:17:36.036Z,99.15
2018-07-16T06:18:36.020Z,99.35
2018-07-16T06:19:36.007Z,99.25
2018-07-16T06:20:35.986Z,99.25
2018-07-16T06:21:35.969Z,99.54
2018-07-16T06:22:35.952Z,99.92
2018-07-16T06:23:35.935Z,99.44
2018-07-16T06:24:35.918Z,98.68
2018-07-16T06:25:35.900Z,99.11
2018-07-16T06:26:35.882Z,99.11
2018-07-16T06:27:35.867Z,99.40
2018-07-16T06:28:35.850Z,99.11
2018-07-16T06:29:35.835Z,99.11
2018-07-16T06:30:35.814Z,99.40
2018-07-16T06:31:35.800Z,98.14
2018-07-16T06:32:35.892Z,97.86
2018-07-16T06:33:35.765Z,98.14
2018-07-16T06:34:35.749Z,97.76
2018-07-16T06:35:35.731Z,97.96
2018-07-16T06:36:35.718Z,98.05
2018-07-16T06:37:35.697Z,97.57
2018-07-16T06:38:35.681Z,98.19
2018-07-16T06:39:35.685Z,98.19
2018-07-16T06:40:35.825Z,98.39
2018-07-16T06:41:36.157Z,98.10
2018-07-16T06:42:35.613Z,97.91
2018-07-16T06:43:35.600Z,97.81
2018-07-16T06:44:35.581Z,97.81
2018-07-16T06:45:35.563Z,96.66
2018-07-16T06:46:35.547Z,97.24
2018-07-16T06:47:35.531Z,97.38
2018-07-16T06:48:35.514Z,96.22
2018-07-16T06:49:35.500Z,95.94
2018-07-16T06:50:35.481Z,96.03
2018-07-16T06:51:35.467Z,96.12
2018-07-16T06:52:35.448Z,96.70
2018-07-16T06:53:35.429Z,95.98
2018-07-16T06:54:35.419Z,96.51
2018-07-16T06:55:35.397Z,96.85
2018-07-16T06:56:35.382Z,97.28
2018-07-16T06:57:35.364Z,97.19
2018-07-16T06:58:37.601Z,96.70
2018-07-16T06:59:35.332Z,96.12
2018-07-16T07:00:35.315Z,96.51
2018-07-16T07:01:35.301Z,96.56
2018-07-16T07:02:35.283Z,96.85
2018-07-16T07:03:35.266Z,97.71
2018-07-16T07:04:35.249Z,97.52
2018-07-16T07:05:35.231Z,96.56
2018-07-16T07:06:35.215Z,97.52
2018-07-16T07:07:35.199Z,97.62
2018-07-16T07:08:35.183Z,96.51
2018-07-16T07:09:35.165Z,96.51
2018-07-16T07:10:35.150Z,96.32
2018-07-16T07:11:35.134Z,96.99
2018-07-16T07:12:35.118Z,96.61
2018-07-16T07:13:35.099Z,96.03
2018-07-16T07:14:35.083Z,96.37
2018-07-16T07:15:35.068Z,95.50
2018-07-16T07:16:35.055Z,96.27
2018-07-16T07:17:35.034Z,95.89
2018-07-16T07:18:35.018Z,96.17
2018-07-16T07:19:35.000Z,95.89
2018-07-16T07:20:35.736Z,96.46
2018-07-16T07:21:34.967Z,95.79
2018-07-16T07:22:34.951Z,95.74
2018-07-16T07:23:34.937Z,95.79
2018-07-16T07:24:34.920Z,95.60
2018-07-16T07:25:34.941Z,95.74
2018-07-16T07:26:34.887Z,95.65
2018-07-16T07:27:34.871Z,95.98
2018-07-16T07:28:34.854Z,95.79
2018-07-16T07:29:34.837Z,95.60
2018-07-16T07:30:34.821Z,95.98
2018-07-16T07:31:34.805Z,94.82
2018-07-16T07:32:34.789Z,96.37
2018-07-16T07:33:34.773Z,95.60
2018-07-16T07:34:34.757Z,94.92
2018-07-16T07:35:34.849Z,95.31
2018-07-16T07:36:34.736Z,95.12
2018-07-16T07:37:34.708Z,95.31
2018-07-16T07:38:34.694Z,95.07
2018-07-16T07:39:34.676Z,95.64
2018-07-16T07:40:34.658Z,94.68
2018-07-16T07:41:34.646Z,94.20
2018-07-16T07:42:34.627Z,94.29
2018-07-16T07:43:34.610Z,94.54
2018-07-16T07:44:34.594Z,94.78
2018-07-16T07:45:34.580Z,92.66
2018-07-16T07:46:34.561Z,93.09
2018-07-16T07:47:34.575Z,94.06
2018-07-16T07:48:34.531Z,93.76
2018-07-16T07:49:34.515Z,93.48
2018-07-16T07:50:34.500Z,93.09
2018-07-16T07:51:34.481Z,92.90
2018-07-16T07:52:34.467Z,93.28
2018-07-16T07:53:34.449Z,92.80
2018-07-16T07:54:34.614Z,92.99
2018-07-16T07:55:34.463Z,92.61
2018-07-16T07:56:34.403Z,92.61
2018-07-16T07:57:34.388Z,93.09
2018-07-16T07:58:34.371Z,92.22
2018-07-16T07:59:34.355Z,92.61
2018-07-16T08:00:34.339Z,92.71
2018-07-16T08:01:34.322Z,92.51
2018-07-16T08:02:34.308Z,92.51
2018-07-16T08:03:34.291Z,93.04
2018-07-16T08:04:34.276Z,94.10
2018-07-16T08:05:34.259Z,92.27
2018-07-16T08:06:34.245Z,91.64
2018-07-16T08:07:34.980Z,92.32
2018-07-16T08:08:34.212Z,92.32
2018-07-16T08:09:34.197Z,92.13
2018-07-16T08:10:34.181Z,91.40
2018-07-16T08:11:34.166Z,91.88
2018-07-16T08:12:34.150Z,91.83
2018-07-16T08:13:34.175Z,91.74
2018-07-16T08:14:34.119Z,92.13
2018-07-16T08:15:34.105Z,92.71
2018-07-16T08:16:34.086Z,92.32
2018-07-16T08:17:34.071Z,92.36
2018-07-16T08:18:34.055Z,91.60
2018-07-16T08:19:34.040Z,91.78
2018-07-16T08:20:34.024Z,91.50
2018-07-16T08:21:34.008Z,91.78
2018-07-16T08:22:33.993Z,91.93
2018-07-16T08:23:33.980Z,90.72
2018-07-16T08:24:33.961Z,90.63
2018-07-16T08:25:33.946Z,89.95
2018-07-16T08:26:33.938Z,90.82
2018-07-16T08:27:33.919Z,90.24
2018-07-16T08:28:33.904Z,90.24
2018-07-16T08:29:33.884Z,90.63
2018-07-16T08:30:33.867Z,89.86
2018-07-16T08:31:33.854Z,90.24
2018-07-16T08:32:33.838Z,90.58
2018-07-16T08:33:33.828Z,90.77
2018-07-16T08:34:33.805Z,91.16
2018-07-16T08:35:33.790Z,90.81
2018-07-16T08:36:33.776Z,90.33
2018-07-16T08:37:33.760Z,90.72
2018-07-16T08:38:33.743Z,89.07
2018-07-16T08:39:33.728Z,90.14
2018-07-16T08:40:33.714Z,88.59
2018-07-16T08:41:33.697Z,90.05
2018-07-16T08:42:33.683Z,88.79
2018-07-16T08:43:33.667Z,89.27
2018-07-16T08:44:33.652Z,88.50
2018-07-16T08:45:33.636Z,88.98
2018-07-16T08:46:33.622Z,89.17
2018-07-16T08:47:33.608Z,88.98
2018-07-16T08:48:33.593Z,88.50
2018-07-16T08:49:33.577Z,88.45
2018-07-16T08:50:33.564Z,88.75
2018-07-16T08:51:33.546Z,88.59
2018-07-16T08:52:33.533Z,88.31
2018-07-16T08:53:33.516Z,88.40
2018-07-16T08:54:33.502Z,86.38
2018-07-16T08:55:33.486Z,85.70
2018-07-16T08:56:33.471Z,86.38
2018-07-16T08:57:33.455Z,86.28
2018-07-16T08:58:33.441Z,86.66
2018-07-16T08:59:33.427Z,86.57
2018-07-16T09:00:33.412Z,86.66
2018-07-16T09:01:33.394Z,86.71
2018-07-16T09:02:33.381Z,87.38
2018-07-16T09:03:33.365Z,86.66
2018-07-16T09:04:33.354Z,86.76
2018-07-16T09:05:33.335Z,86.13
2018-07-16T09:06:33.322Z,86.13
2018-07-16T09:07:33.304Z,86.71
2018-07-16T09:08:33.293Z,85.98
2018-07-16T09:09:33.274Z,84.91
2018-07-16T09:10:33.261Z,85.01
2018-07-16T09:11:33.247Z,84.33
2018-07-16T09:12:33.230Z,82.89
2018-07-16T09:13:33.270Z,82.64
2018-07-16T09:14:33.200Z,81.87
2018-07-16T09:15:33.184Z,82.64
2018-07-16T09:16:33.171Z,81.71
2018-07-16T09:17:33.154Z,79.97
2018-07-16T09:18:33.140Z,79.58
2018-07-16T09:19:33.128Z,80.46
2018-07-16T09:20:33.111Z,81.67
2018-07-16T09:21:33.097Z,81.87
2018-07-16T09:22:33.081Z,81.19
2018-07-16T09:23:33.067Z,80.90
2018-07-16T09:24:33.055Z,79.93
2018-07-16T09:25:33.046Z,79.06
2018-07-16T09:26:33.024Z,79.83
2018-07-16T09:27:33.010Z,78.87
2018-07-16T09:28:32.995Z,79.06
2018-07-16T09:29:32.979Z,80.16
2018-07-16T09:30:32.964Z,81.57
2018-07-16T09:31:32.957Z,82.83
2018-07-16T09:32:32.978Z,83.16
2018-07-16T09:33:32.921Z,82.48
2018-07-16T09:34:32.907Z,83.26
2018-07-16T09:35:32.893Z,83.06
2018-07-16T09:36:32.879Z,81.32
2018-07-16T09:37:32.864Z,79.58
2018-07-16T09:38:32.854Z,79.54
2018-07-16T09:39:32.837Z,77.90
2018-07-16T09:40:32.822Z,78.48
2018-07-16T09:41:32.808Z,80.99
2018-07-16T09:42:32.793Z,80.51
2018-07-16T09:43:32.777Z,78.91
2018-07-16T09:44:32.863Z,80.94
2018-07-16T09:45:32.748Z,80.74
2018-07-16T09:46:32.734Z,82.29
2018-07-16T09:47:32.721Z,79.87
2018-07-16T09:48:32.707Z,81.71
2018-07-16T09:49:32.693Z,80.84
2018-07-16T09:50:32.678Z,82.48
2018-07-16T09:51:32.665Z,82.23
2018-07-16T09:52:32.650Z,81.27
2018-07-16T09:53:32.637Z,79.82
2018-07-16T09:54:32.620Z,79.14
2018-07-16T09:55:32.607Z,79.47
2018-07-16T09:56:32.668Z,78.99
2018-07-16T09:57:32.578Z,79.37
2018-07-16T09:58:32.564Z,79.17
2018-07-16T09:59:32.550Z,79.32
2018-07-16T10:00:32.540Z,79.47
2018-07-16T10:01:32.523Z,78.21
2018-07-16T10:02:32.508Z,79.47
2018-07-16T10:03:32.494Z,80.44
2018-07-16T10:04:32.481Z,80.92
2018-07-16T10:05:32.466Z,79.95
2018-07-16T10:06:32.453Z,80.54
2018-07-16T10:07:32.440Z,80.05
2018-07-16T10:08:33.306Z,81.21
2018-07-16T10:09:32.411Z,81.02
2018-07-16T10:10:32.398Z,80.77
2018-07-16T10:11:32.384Z,78.83
2018-07-16T10:12:32.371Z,78.89
2018-07-16T10:13:32.356Z,78.59
2018-07-16T10:14:32.341Z,78.21
2018-07-16T10:15:32.330Z,79.08
2018-07-16T10:16:32.318Z,79.57
2018-07-16T10:17:32.305Z,78.31
2018-07-16T10:18:32.288Z,78.31
2018-07-16T10:19:32.275Z,79.08
2018-07-16T10:20:32.348Z,77.14
2018-07-16T10:21:32.246Z,78.31
2018-07-16T10:22:32.233Z,78.59
2018-07-16T10:23:32.219Z,75.89
2018-07-16T10:24:32.205Z,77.11
2018-07-16T10:25:32.190Z,77.01
2018-07-16T10:26:32.178Z,77.59
2018-07-16T10:27:32.164Z,78.46
2018-07-16T10:28:32.151Z,78.56
2018-07-16T10:29:32.136Z,78.02
2018-07-16T10:30:32.124Z,77.28
2018-07-16T10:31:32.110Z,76.60
2018-07-16T10:32:32.094Z,76.89
2018-07-16T10:33:32.082Z,77.76
2018-07-16T10:34:32.068Z,77.96
2018-07-16T10:35:32.054Z,75.24
2018-07-16T10:36:32.041Z,74.96
2018-07-16T10:37:32.030Z,74.47
2018-07-16T10:38:32.012Z,74.80
2018-07-16T10:39:32.009Z,75.05
2018-07-16T10:40:31.985Z,74.80
2018-07-16T10:41:31.970Z,73.11
2018-07-16T10:42:31.958Z,74.47
2018-07-16T10:43:31.945Z,74.28
2018-07-16T10:44:31.930Z,74.76
2018-07-16T10:45:31.916Z,74.38
2018-07-16T10:46:31.904Z,74.57
2018-07-16T10:47:31.895Z,76.21
2018-07-16T10:48:31.876Z,75.44
2018-07-16T10:49:31.872Z,77.28
2018-07-16T10:50:31.849Z,77.61
2018-07-16T10:51:31.835Z,75.48
2018-07-16T10:52:31.822Z,73.05
2018-07-16T10:53:31.807Z,73.41
2018-07-16T10:54:31.793Z,74.76
2018-07-16T10:55:31.782Z,75.28
2018-07-16T10:56:31.768Z,72.86
2018-07-16T10:57:31.753Z,71.70
2018-07-16T10:58:31.740Z,72.51
2018-07-16T10:59:31.730Z,72.31
2018-07-16T11:00:31.715Z,74.06
2018-07-16T11:01:31.700Z,72.31
2018-07-16T11:02:31.686Z,72.80
2018-07-16T11:03:31.673Z,70.67
2018-07-16T11:04:31.664Z,69.79
2018-07-16T11:05:31.676Z,69.60
2018-07-16T11:06:31.632Z,69.79
2018-07-16T11:07:31.621Z,70.31
2018-07-16T11:08:31.606Z,70.12
2018-07-16T11:09:31.592Z,70.61
2018-07-16T11:10:31.579Z,70.61
2018-07-16T11:11:31.566Z,70.54
2018-07-16T11:12:31.553Z,69.38
2018-07-16T11:13:31.540Z,69.67
2018-07-16T11:14:31.527Z,69.38
2018-07-16T11:15:31.515Z,69.38
2018-07-16T11:16:31.502Z,67.63
2018-07-16T11:17:31.489Z,67.18
2018-07-16T11:18:31.476Z,66.76
2018-07-16T11:19:31.464Z,67.24
2018-07-16T11:20:31.451Z,67.63
2018-07-16T11:21:31.436Z,67.66
2018-07-16T11:22:32.175Z,68.93
2018-07-16T11:23:31.412Z,69.22
2018-07-16T11:24:31.398Z,66.40
2018-07-16T11:25:31.384Z,65.92
2018-07-16T11:26:31.373Z,66.89
2018-07-16T11:27:31.359Z,68.05
2018-07-16T11:28:31.348Z,67.86
2018-07-16T11:29:31.335Z,68.73
2018-07-16T11:30:31.329Z,67.57
2018-07-16T11:31:31.309Z,67.47
2018-07-16T11:32:31.298Z,68.63
2018-07-16T11:33:31.284Z,67.47
2018-07-16T11:34:31.271Z,68.05
2018-07-16T11:35:31.334Z,66.56
2018-07-16T11:36:31.247Z,66.53
2018-07-16T11:37:31.233Z,66.63
2018-07-16T11:38:31.221Z,68.18
2018-07-16T11:39:31.208Z,69.83
2018-07-16T11:40:31.197Z,67.92
2018-07-16T11:41:31.188Z,65.89
2018-07-16T11:42:31.172Z,64.88
2018-07-16T11:43:31.160Z,65.01
2018-07-16T11:44:31.147Z,65.24
2018-07-16T11:45:31.134Z,65.92
2018-07-16T11:46:31.127Z,66.14
2018-07-16T11:47:31.109Z,65.27
2018-07-16T11:48:31.097Z,64.59
2018-07-16T11:49:31.084Z,63.91
2018-07-16T11:50:31.074Z,61.77
2018-07-16T11:51:31.060Z,63.42
2018-07-16T11:52:31.047Z,62.74
2018-07-16T11:53:31.033Z,62.13
2018-07-16T11:54:31.772Z,61.81
2018-07-16T11:55:31.010Z,63.95
2018-07-16T11:56:30.998Z,65.14
2018-07-16T11:57:30.984Z,62.42
2018-07-16T11:58:30.971Z,63.71
2018-07-16T11:59:30.961Z,63.23
2018-07-16T12:00:30.948Z,60.71
2018-07-16T12:01:30.934Z,58.28
2018-07-16T12:02:30.922Z,58.05
2018-07-16T12:03:30.953Z,58.41
2018-07-16T12:04:30.897Z,59.38
2018-07-16T12:05:30.888Z,60.16
2018-07-16T12:06:30.872Z,61.71
2018-07-16T12:07:30.861Z,61.84
2018-07-16T12:08:30.849Z,60.71
2018-07-16T12:09:30.835Z,61.29
2018-07-16T12:10:30.824Z,62.19
2018-07-16T12:11:30.811Z,60.35
2018-07-16T12:12:30.808Z,58.95
2018-07-16T12:13:30.787Z,62.07
2018-07-16T12:14:30.818Z,62.84
2018-07-16T12:15:30.761Z,63.32
2018-07-16T12:16:30.749Z,62.84
2018-07-16T12:17:30.737Z,63.36
2018-07-16T12:18:30.725Z,62.97
2018-07-16T12:19:30.713Z,62.41
2018-07-16T12:20:30.733Z,61.15
2018-07-16T12:21:30.689Z,60.67
2018-07-16T12:22:30.675Z,62.23
2018-07-16T12:23:30.665Z,60.86
2018-07-16T12:24:30.653Z,61.64
2018-07-16T12:25:30.641Z,62.45
2018-07-16T12:26:32.881Z,61.77
2018-07-16T12:27:30.616Z,60.79
2018-07-16T12:28:30.605Z,59.63
2018-07-16T12:29:30.593Z,62.16
2018-07-16T12:30:30.580Z,60.18
2018-07-16T12:31:30.569Z,60.38
2018-07-16T12:32:30.557Z,59.99
2018-07-16T12:33:30.545Z,59.82
2018-07-16T12:34:30.535Z,60.21
2018-07-16T12:35:30.524Z,58.92
2018-07-16T12:36:30.511Z,60.05
2018-07-16T12:37:30.500Z,60.74
2018-07-16T12:38:30.488Z,60.05
2018-07-16T12:39:30.476Z,60.08
2018-07-16T12:40:30.469Z,59.99
2018-07-16T12:41:30.530Z,59.59
2018-07-16T12:42:30.442Z,58.59
2018-07-16T12:43:30.431Z,58.14
2018-07-16T12:44:30.418Z,59.41
2018-07-16T12:45:30.408Z,58.33
2018-07-16T12:46:30.395Z,58.53
2018-07-16T12:47:30.384Z,59.59
2018-07-16T12:48:30.374Z,58.79
2018-07-16T12:49:30.359Z,62.10
2018-07-16T12:50:30.349Z,61.22
2018-07-16T12:51:30.337Z,62.16
2018-07-16T12:52:30.327Z,60.25